Time;durP1;ratioP1;P1;durP2;ratioP2;P2;SDS_P1;SDS_P2;PMS_P1;PMS_P2;Temp;Humidity;BMP_temperature;BMP_pressure;BME280_temperature;BME280_humidity;BME280_pressure;Samples;Min_cycle;Max_cycle;Signal;HPM_P1;HPM_P2
2022/01/04 00:02:01;;;;;;;6.75;1.58;;;9.00;99.90;;;;;;5031165;28;20049;-67
2022/01/04 00:04:28;;;;;;;4.10;1.42;;;8.90;99.90;;;;;;5032757;28;20053;-67
2022/01/04 00:06:57;;;;;;;4.03;1.40;;;8.90;99.90;;;;;;5032331;28;20514;-67
2022/01/04 00:09:24;;;;;;;5.80;1.77;;;8.90;99.90;;;;;;5032950;28;20066;-67
2022/01/04 00:14:22;;;;;;;4.60;1.45;;;8.90;99.90;;;;;;5017626;28;20586;-67
2022/01/04 00:16:50;;;;;;;7.63;3.00;;;8.90;99.90;;;;;;5018826;28;20092;-67
2022/01/04 00:19:18;;;;;;;5.18;2.63;;;8.80;99.90;;;;;;5032603;28;20577;-67
2022/01/04 00:21:45;;;;;;;6.18;2.10;;;8.80;99.90;;;;;;5032329;28;20060;-67
2022/01/04 00:24:12;;;;;;;5.97;1.83;;;8.90;99.90;;;;;;5032467;28;20119;-67
2022/01/04 00:26:40;;;;;;;7.85;1.80;;;8.90;99.90;;;;;;5033247;28;20045;-67
2022/01/04 00:29:08;;;;;;;6.05;2.50;;;9.00;99.90;;;;;;5032681;28;20551;-67
2022/01/04 00:31:35;;;;;;;4.93;1.67;;;8.90;99.90;;;;;;5032519;28;20076;-66
2022/01/04 00:34:03;;;;;;;5.03;1.90;;;8.90;99.90;;;;;;5032157;28;20047;-67
2022/01/04 00:36:30;;;;;;;4.75;1.90;;;8.90;99.90;;;;;;5032248;28;20108;-66
2022/01/04 00:38:58;;;;;;;4.20;1.80;;;8.80;99.90;;;;;;5032148;28;20488;-67
2022/01/04 00:41:25;;;;;;;5.40;1.73;;;8.80;99.90;;;;;;5031410;28;20147;-66
2022/01/04 00:43:52;;;;;;;5.80;1.80;;;8.80;99.90;;;;;;5030391;28;20041;-66
2022/01/04 00:46:19;;;;;;;6.00;2.08;;;8.70;99.90;;;;;;5032039;28;20041;-67
2022/01/04 00:51:32;;;;;;;5.25;1.80;;;8.60;99.90;;;;;;5019308;28;20104;-67
2022/01/04 00:54:00;;;;;;;6.43;2.28;;;8.70;99.90;;;;;;5043586;28;20037;-67
2022/01/04 00:56:27;;;;;;;5.55;1.80;;;8.60;99.90;;;;;;5031879;28;20056;-66
2022/01/04 00:58:55;;;;;;;4.70;2.17;;;8.50;99.90;;;;;;5032681;28;20045;-65
2022/01/04 01:01:22;;;;;;;6.03;1.90;;;8.50;99.90;;;;;;5014461;28;20052;-67
2022/01/04 01:03:50;;;;;;;6.75;1.92;;;8.50;99.90;;;;;;5032399;28;20549;-67
2022/01/04 01:06:18;;;;;;;7.07;2.17;;;8.40;99.90;;;;;;5031642;28;20041;-66
2022/01/04 01:08:45;;;;;;;6.90;1.83;;;8.40;99.90;;;;;;5030496;28;20048;-66
2022/01/04 01:11:13;;;;;;;7.03;1.92;;;8.50;99.90;;;;;;5031393;28;20411;-66
2022/01/04 01:13:40;;;;;;;7.00;1.88;;;8.40;99.90;;;;;;5029727;28;20369;-66
2022/01/04 01:16:09;;;;;;;6.22;2.00;;;8.40;99.90;;;;;;5031158;28;20550;-67
2022/01/04 01:18:37;;;;;;;8.38;2.50;;;8.30;99.90;;;;;;5030895;28;20524;-66
2022/01/04 01:21:06;;;;;;;7.03;1.88;;;8.30;99.90;;;;;;5031364;28;20049;-67
2022/01/04 01:23:35;;;;;;;4.20;2.20;;;8.20;99.90;;;;;;5030291;28;20558;-66
2022/01/04 01:26:05;;;;;;;6.55;2.92;;;8.20;99.90;;;;;;5031196;28;20084;-67
2022/01/04 01:28:33;;;;;;;7.00;2.42;;;8.20;99.90;;;;;;5031075;28;20368;-66
2022/01/04 01:31:06;;;;;;;6.30;2.20;;;8.20;99.90;;;;;;5030652;28;20069;-67
2022/01/04 01:33:33;;;;;;;7.63;2.60;;;8.10;99.90;;;;;;5029400;28;20061;-66
2022/01/04 01:36:01;;;;;;;4.00;2.20;;;8.10;99.90;;;;;;5030901;28;20056;-67
2022/01/04 01:38:28;;;;;;;5.55;2.63;;;8.20;99.90;;;;;;5032308;28;20054;-67
2022/01/04 01:40:55;;;;;;;7.78;2.40;;;8.20;99.90;;;;;;5042686;28;20534;-66
2022/01/04 01:43:24;;;;;;;7.80;2.72;;;8.20;99.90;;;;;;5045218;28;20041;-66
2022/01/04 01:45:53;;;;;;;6.13;2.28;;;8.30;99.90;;;;;;5037614;28;20045;-66
2022/01/04 01:48:21;;;;;;;8.20;2.30;;;8.30;99.90;;;;;;5037114;28;20054;-67
2022/01/04 01:50:48;;;;;;;7.57;3.10;;;8.20;99.90;;;;;;5043964;28;20045;-66
2022/01/04 01:53:17;;;;;;;8.68;2.15;;;8.20;99.90;;;;;;5030448;28;20076;-67
2022/01/04 01:55:44;;;;;;;5.22;2.33;;;8.10;99.90;;;;;;5031317;28;20049;-67
2022/01/04 01:58:11;;;;;;;6.43;2.35;;;8.10;99.90;;;;;;5019409;28;20030;-66
2022/01/04 02:00:39;;;;;;;8.40;2.67;;;8.20;99.90;;;;;;5023291;28;20045;-66
2022/01/04 02:03:06;;;;;;;9.65;3.25;;;8.20;99.90;;;;;;5031022;28;20041;-66
2022/01/04 02:05:34;;;;;;;7.35;2.50;;;8.20;99.90;;;;;;5026871;28;20046;-66
2022/01/04 02:08:04;;;;;;;5.75;2.40;;;8.20;99.90;;;;;;5021459;28;20069;-66
2022/01/04 02:10:32;;;;;;;8.48;2.42;;;8.30;99.90;;;;;;5020725;28;20037;-66
2022/01/04 02:13:00;;;;;;;5.80;2.58;;;8.30;99.90;;;;;;5024160;28;20071;-65
2022/01/04 02:15:30;;;;;;;7.10;2.30;;;8.30;99.90;;;;;;5030335;28;20037;-66
2022/01/04 02:17:57;;;;;;;4.82;2.67;;;8.30;99.90;;;;;;5027590;28;20419;-66
2022/01/04 02:20:25;;;;;;;5.75;2.42;;;8.30;99.90;;;;;;5020350;28;20144;-67
2022/01/04 02:22:54;;;;;;;6.53;2.40;;;8.30;99.90;;;;;;5029974;28;20132;-68
2022/01/04 02:25:21;;;;;;;5.53;2.53;;;8.30;99.90;;;;;;5028824;28;20496;-66
2022/01/04 02:27:49;;;;;;;6.90;2.33;;;8.30;99.90;;;;;;5030857;28;20057;-65
2022/01/04 02:30:19;;;;;;;6.47;2.05;;;8.30;99.90;;;;;;5030948;28;20051;-66
2022/01/04 02:32:48;;;;;;;7.57;2.38;;;8.40;99.90;;;;;;5030967;28;20042;-66
2022/01/04 02:35:18;;;;;;;5.95;2.30;;;8.40;99.90;;;;;;5030832;28;20045;-65
2022/01/04 02:37:46;;;;;;;4.10;2.45;;;8.40;99.90;;;;;;5024704;28;20132;-66
2022/01/04 02:40:13;;;;;;;8.55;2.10;;;8.40;99.90;;;;;;5033653;28;20159;-66
2022/01/04 02:42:41;;;;;;;5.68;2.03;;;8.40;99.90;;;;;;5032132;28;20056;-66
2022/01/04 02:45:09;;;;;;;5.20;1.90;;;8.40;99.90;;;;;;5033554;28;20045;-65
2022/01/04 02:47:37;;;;;;;7.03;2.10;;;8.50;99.90;;;;;;5028903;28;20049;-66
2022/01/04 02:50:06;;;;;;;5.93;2.05;;;8.50;99.90;;;;;;5036642;28;20036;-66
2022/01/04 02:52:34;;;;;;;5.32;1.85;;;8.40;99.90;;;;;;5034733;28;20038;-65
2022/01/04 02:55:13;;;;;;;4.90;1.88;;;8.50;99.90;;;;;;5033565;28;20045;-66
2022/01/04 02:57:40;;;;;;;7.82;2.38;;;8.50;99.90;;;;;;5032524;28;20463;-65
2022/01/04 03:00:11;;;;;;;5.22;2.30;;;8.50;99.90;;;;;;5018180;28;20551;-67
2022/01/04 03:02:39;;;;;;;6.63;2.17;;;8.60;99.90;;;;;;5015150;28;20053;-68
2022/01/04 03:05:08;;;;;;;5.70;1.70;;;8.60;99.90;;;;;;5036645;28;20044;-67
2022/01/04 03:07:36;;;;;;;6.63;1.80;;;8.60;99.90;;;;;;5040049;28;20530;-67
2022/01/04 03:10:05;;;;;;;5.07;1.63;;;8.60;99.90;;;;;;5032061;28;20052;-67
2022/01/04 03:12:34;;;;;;;4.97;2.03;;;8.70;99.90;;;;;;5026389;28;20158;-67
2022/01/04 03:15:04;;;;;;;4.35;1.58;;;8.70;99.90;;;;;;5048482;28;20383;-67
2022/01/04 03:17:31;;;;;;;4.25;1.60;;;8.70;99.90;;;;;;5035942;28;20048;-67
2022/01/04 03:19:58;;;;;;;4.90;1.83;;;8.80;99.90;;;;;;5031282;28;20251;-67
2022/01/04 03:22:26;;;;;;;5.50;1.98;;;8.80;99.90;;;;;;5027751;28;20095;-67
2022/01/04 03:24:53;;;;;;;6.18;1.90;;;8.80;99.90;;;;;;5034280;28;20052;-68
2022/01/04 03:27:21;;;;;;;5.80;1.90;;;8.80;99.90;;;;;;5031474;28;20490;-67
2022/01/04 03:29:48;;;;;;;5.65;1.92;;;8.80;99.90;;;;;;5033092;28;20051;-67
2022/01/04 03:32:16;;;;;;;6.68;2.10;;;8.80;99.90;;;;;;5031570;28;20030;-67
2022/01/04 03:34:43;;;;;;;4.53;2.08;;;8.80;99.90;;;;;;5032630;28;20051;-67
2022/01/04 03:37:10;;;;;;;5.30;1.85;;;8.90;99.90;;;;;;5030586;28;20119;-66
2022/01/04 03:39:37;;;;;;;7.03;1.90;;;8.90;99.90;;;;;;5030535;28;20038;-67
2022/01/04 03:42:05;;;;;;;5.38;2.03;;;8.90;99.90;;;;;;5031153;28;20124;-65
2022/01/04 03:44:32;;;;;;;5.90;1.92;;;8.90;99.90;;;;;;5029762;28;20448;-67
2022/01/04 03:47:01;;;;;;;4.60;1.80;;;9.00;99.90;;;;;;5031430;28;20473;-67
2022/01/04 03:49:28;;;;;;;5.88;1.63;;;9.00;99.90;;;;;;5032173;28;20034;-66
2022/01/04 03:51:56;;;;;;;4.80;2.03;;;8.90;99.90;;;;;;5027715;28;20053;-67
2022/01/04 03:54:23;;;;;;;3.85;1.58;;;8.90;99.90;;;;;;5037569;28;20573;-67
2022/01/04 03:56:50;;;;;;;6.45;1.67;;;8.90;99.90;;;;;;5039182;28;20415;-67
2022/01/04 03:59:17;;;;;;;4.80;1.60;;;8.90;99.90;;;;;;5028321;28;20409;-66
2022/01/04 04:01:45;;;;;;;4.43;1.58;;;9.00;99.90;;;;;;5012617;28;20068;-67
2022/01/04 04:04:13;;;;;;;4.25;1.52;;;9.00;99.90;;;;;;5035946;28;20068;-67
2022/01/04 04:06:40;;;;;;;3.67;1.42;;;9.00;99.90;;;;;;5035114;28;20405;-67
2022/01/04 04:09:08;;;;;;;5.88;1.73;;;9.00;99.90;;;;;;5035579;28;20059;-67
2022/01/04 04:11:35;;;;;;;4.75;1.92;;;9.00;99.90;;;;;;5036697;28;20048;-67
2022/01/04 04:14:02;;;;;;;5.85;2.35;;;9.00;99.90;;;;;;5042442;28;20049;-67
2022/01/04 04:16:31;;;;;;;4.18;1.67;;;9.00;99.90;;;;;;5039613;28;20042;-67
2022/01/04 04:19:02;;;;;;;2.80;1.40;;;9.00;99.90;;;;;;5040153;28;20507;-66
2022/01/04 04:21:29;;;;;;;4.68;1.80;;;9.00;99.90;;;;;;5039486;28;20045;-67
2022/01/04 04:23:56;;;;;;;3.35;1.45;;;9.00;99.90;;;;;;5038222;28;20059;-67
2022/01/04 04:26:23;;;;;;;6.00;1.58;;;9.00;99.90;;;;;;5033140;28;20477;-67
2022/01/04 04:28:51;;;;;;;4.00;1.50;;;9.00;99.90;;;;;;5033836;28;20053;-68
2022/01/04 04:31:18;;;;;;;4.13;1.80;;;9.00;99.90;;;;;;5015051;28;20137;-67
2022/01/04 04:33:45;;;;;;;4.40;2.00;;;9.00;99.90;;;;;;5033540;28;20053;-66
2022/01/04 04:36:14;;;;;;;4.15;1.73;;;9.00;99.90;;;;;;5033199;28;20045;-66
2022/01/04 04:38:42;;;;;;;4.88;1.98;;;9.00;99.90;;;;;;5035100;28;20153;-68
2022/01/04 04:41:09;;;;;;;4.55;1.60;;;9.00;99.90;;;;;;5037547;28;20049;-67
2022/01/04 04:43:36;;;;;;;5.00;2.08;;;9.00;99.90;;;;;;5038331;28;20053;-67
2022/01/04 04:46:04;;;;;;;5.22;1.85;;;9.20;99.90;;;;;;5030537;28;20530;-68
2022/01/04 04:48:31;;;;;;;7.35;2.13;;;9.10;99.90;;;;;;5041200;28;20497;-67
2022/01/04 04:50:59;;;;;;;3.58;1.85;;;9.10;99.90;;;;;;5035590;28;20407;-66
2022/01/04 04:53:26;;;;;;;3.97;2.10;;;9.10;99.90;;;;;;5033689;28;20459;-66
2022/01/04 04:55:53;;;;;;;5.65;2.20;;;9.10;99.90;;;;;;5045416;28;20089;-66
2022/01/04 04:58:20;;;;;;;5.22;2.20;;;9.10;99.90;;;;;;5033467;28;20543;-67
2022/01/04 05:00:47;;;;;;;5.07;2.63;;;9.20;99.90;;;;;;5029562;28;20057;-66
2022/01/04 05:03:15;;;;;;;3.42;1.83;;;9.10;99.90;;;;;;5018003;28;20042;-67
2022/01/04 05:05:42;;;;;;;8.05;2.65;;;9.10;99.90;;;;;;5029681;28;20057;-67
2022/01/04 05:08:10;;;;;;;6.70;2.30;;;9.10;99.90;;;;;;5043472;28;20607;-66
2022/01/04 05:10:38;;;;;;;4.00;2.08;;;9.10;99.90;;;;;;5029621;28;20503;-66
2022/01/04 05:13:05;;;;;;;6.30;2.22;;;9.10;99.90;;;;;;5031407;28;20044;-67
2022/01/04 05:15:32;;;;;;;4.55;2.10;;;9.10;99.90;;;;;;5030026;28;20134;-66
2022/01/04 05:18:00;;;;;;;5.25;2.67;;;9.10;99.90;;;;;;5031546;28;20573;-66
2022/01/04 05:20:28;;;;;;;4.70;1.80;;;9.10;99.90;;;;;;5030140;28;20064;-66
2022/01/04 05:22:55;;;;;;;6.15;2.03;;;9.10;99.90;;;;;;5029936;28;20128;-67
2022/01/04 05:25:22;;;;;;;4.32;2.20;;;9.20;99.90;;;;;;5031606;28;20045;-67
2022/01/04 05:27:50;;;;;;;6.88;2.72;;;9.10;99.90;;;;;;5023220;28;20045;-67
2022/01/04 05:30:17;;;;;;;8.52;4.70;;;9.10;99.90;;;;;;5031473;28;20049;-66
2022/01/04 05:32:45;;;;;;;9.35;4.57;;;9.10;99.90;;;;;;5042482;28;20076;-66
2022/01/04 05:35:12;;;;;;;10.65;4.13;;;9.20;99.90;;;;;;5018513;28;20038;-66
2022/01/04 05:37:39;;;;;;;9.48;3.13;;;9.20;99.90;;;;;;5036311;28;20221;-66
2022/01/04 05:40:07;;;;;;;6.97;3.15;;;9.20;99.90;;;;;;5028562;28;20041;-66
2022/01/04 05:42:34;;;;;;;5.80;3.10;;;9.20;99.90;;;;;;5020936;28;20519;-67
2022/01/04 05:45:02;;;;;;;7.47;3.25;;;9.20;99.90;;;;;;5027425;28;20057;-66
2022/01/04 05:47:29;;;;;;;5.88;3.28;;;9.10;99.90;;;;;;5030579;28;20049;-67
2022/01/04 05:49:56;;;;;;;6.97;3.25;;;9.00;99.90;;;;;;5031671;28;20048;-67
2022/01/04 05:52:23;;;;;;;7.45;3.65;;;9.00;99.90;;;;;;5030461;28;20041;-67
2022/01/04 05:54:51;;;;;;;6.28;3.25;;;9.00;99.90;;;;;;5038107;28;20088;-67
2022/01/04 05:57:19;;;;;;;6.82;3.20;;;9.00;99.90;;;;;;5033758;28;20041;-67
2022/01/04 05:59:46;;;;;;;10.13;3.63;;;8.90;99.90;;;;;;5026935;28;20554;-67
2022/01/04 06:02:13;;;;;;;8.07;3.30;;;8.90;99.90;;;;;;5042188;28;20052;-67
2022/01/04 06:04:41;;;;;;;7.57;3.42;;;8.90;99.90;;;;;;5030411;28;20049;-67
2022/01/04 06:07:09;;;;;;;11.80;4.00;;;8.80;99.90;;;;;;5035839;28;20049;-67
2022/01/04 06:09:45;;;;;;;9.93;3.63;;;8.80;99.90;;;;;;5029867;28;20068;-67
2022/01/04 06:15:12;;;;;;;11.32;3.42;;;8.80;99.90;;;;;;5054310;28;20041;-68
2022/01/04 06:17:49;;;;;;;9.25;3.92;;;8.90;99.90;;;;;;5038321;28;20045;-68
2022/01/04 06:20:21;;;;;;;8.32;3.35;;;8.80;99.90;;;;;;5033587;28;20060;-67
2022/01/04 06:22:50;;;;;;;11.85;5.05;;;8.80;99.90;;;;;;5047082;28;20132;-67
2022/01/04 06:25:20;;;;;;;8.82;3.90;;;8.80;99.90;;;;;;5047016;28;20103;-67
2022/01/04 06:27:51;;;;;;;9.90;3.55;;;8.70;99.90;;;;;;5047019;28;20041;-67
2022/01/04 06:30:21;;;;;;;8.77;3.95;;;8.80;99.90;;;;;;5047765;28;20511;-66
2022/01/04 06:32:50;;;;;;;;;;;8.80;99.90;;;;;;5028612;28;20471;-66
2022/01/04 06:35:18;;;;;;;8.27;3.80;;;8.80;99.90;;;;;;5044879;28;19971;-67
2022/01/04 06:37:46;;;;;;;7.80;3.47;;;8.80;99.90;;;;;;5056860;28;20503;-67
2022/01/04 06:40:14;;;;;;;9.07;4.40;;;8.70;99.90;;;;;;5046927;28;20076;-67
2022/01/04 06:42:41;;;;;;;13.00;4.90;;;8.80;99.90;;;;;;5029376;28;20057;-67
2022/01/04 06:45:09;;;;;;;9.02;3.67;;;8.80;99.90;;;;;;5047952;28;20052;-67
2022/01/04 06:47:37;;;;;;;9.10;4.18;;;8.80;99.90;;;;;;5016443;28;20087;-67
2022/01/04 06:50:06;;;;;;;10.45;4.60;;;8.80;99.90;;;;;;5030571;28;20431;-67
2022/01/04 06:52:34;;;;;;;10.02;4.65;;;8.70;99.90;;;;;;5021480;28;20096;-67
2022/01/04 06:55:01;;;;;;;9.68;4.28;;;8.70;99.90;;;;;;5032479;28;20049;-67
2022/01/04 06:57:28;;;;;;;11.07;4.50;;;8.70;99.90;;;;;;5031059;28;20456;-67
2022/01/04 06:59:55;;;;;;;11.05;4.13;;;8.70;99.90;;;;;;5032295;28;20070;-67
2022/01/04 07:02:23;;;;;;;8.50;3.78;;;8.80;99.90;;;;;;5030839;28;20056;-68
2022/01/04 07:04:50;;;;;;;8.90;3.53;;;8.80;99.90;;;;;;5030134;28;20041;-67
2022/01/04 07:07:18;;;;;;;8.27;3.75;;;8.70;99.90;;;;;;5024603;28;20042;-67
2022/01/04 07:09:45;;;;;;;7.22;3.20;;;8.80;99.90;;;;;;5027682;28;20041;-66
2022/01/04 07:12:12;;;;;;;7.97;3.28;;;8.70;99.90;;;;;;5028018;28;20045;-67
2022/01/04 07:14:39;;;;;;;7.78;3.45;;;8.70;99.90;;;;;;5031124;28;20124;-68
2022/01/04 07:17:07;;;;;;;6.30;2.75;;;8.70;99.90;;;;;;5030453;28;20052;-68
2022/01/04 07:19:34;;;;;;;8.88;3.35;;;8.80;99.90;;;;;;5030583;28;20319;-68
2022/01/04 07:22:04;;;;;;;6.53;3.75;;;8.70;99.90;;;;;;5044109;28;20561;-67
2022/01/04 07:24:31;;;;;;;8.35;4.10;;;8.70;99.90;;;;;;5036136;28;20400;-68
2022/01/04 07:26:58;;;;;;;10.80;3.15;;;8.80;99.90;;;;;;5032194;28;20045;-68
2022/01/04 07:29:25;;;;;;;4.90;2.65;;;8.80;99.90;;;;;;5036093;28;20044;-68
2022/01/04 07:31:53;;;;;;;7.50;2.88;;;8.70;99.90;;;;;;5031711;28;20046;-68
2022/01/04 07:34:20;;;;;;;6.25;2.80;;;8.60;99.90;;;;;;5020936;28;20054;-68
2022/01/04 07:36:47;;;;;;;7.82;2.70;;;8.60;99.90;;;;;;5028145;28;20041;-68
2022/01/04 07:39:14;;;;;;;9.70;3.08;;;8.70;99.90;;;;;;5034532;28;20413;-68
2022/01/04 07:41:42;;;;;;;4.30;2.53;;;8.80;99.90;;;;;;5036837;28;20132;-68
2022/01/04 07:44:09;;;;;;;5.28;2.33;;;8.80;99.90;;;;;;5031242;28;20524;-67
2022/01/04 07:46:36;;;;;;;5.40;2.80;;;8.70;99.90;;;;;;5029608;28;20057;-68
2022/01/04 07:49:04;;;;;;;6.90;2.97;;;8.80;99.90;;;;;;5032448;28;20072;-68
2022/01/04 07:51:31;;;;;;;6.75;2.38;;;8.70;99.90;;;;;;5027741;28;20041;-68
2022/01/04 07:53:58;;;;;;;9.07;3.53;;;8.70;99.90;;;;;;5011870;28;20262;-68
2022/01/04 07:56:26;;;;;;;9.65;3.45;;;8.80;99.90;;;;;;5013241;28;20038;-67
2022/01/04 07:58:58;;;;;;;7.88;2.75;;;8.80;99.90;;;;;;5038694;28;20060;-67
2022/01/04 08:01:26;;;;;;;7.82;2.92;;;8.80;99.90;;;;;;5027678;28;20054;-67
2022/01/04 08:03:53;;;;;;;8.48;3.00;;;8.90;99.90;;;;;;5019961;28;20116;-67
2022/01/04 08:06:21;;;;;;;8.77;2.75;;;8.90;99.90;;;;;;5032854;28;20042;-68
2022/01/04 08:08:48;;;;;;;7.45;2.97;;;9.00;99.90;;;;;;5037950;28;20514;-68
2022/01/04 08:11:18;;;;;;;8.55;3.55;;;9.00;99.90;;;;;;5034680;28;20053;-68
2022/01/04 08:13:45;;;;;;;8.80;2.97;;;8.90;99.90;;;;;;5021745;28;20397;-68
2022/01/04 08:16:15;;;;;;;9.50;3.65;;;8.90;99.90;;;;;;5029867;28;20152;-68
2022/01/04 08:18:44;;;;;;;6.97;3.03;;;9.10;99.90;;;;;;5029158;28;20051;-68
2022/01/04 08:21:31;;;;;;;6.93;3.15;;;9.00;99.90;;;;;;5033408;28;20040;-68
2022/01/04 08:23:59;;;;;;;7.72;3.75;;;9.10;99.90;;;;;;5036743;28;20046;-68
2022/01/04 08:26:28;;;;;;;6.93;3.65;;;9.10;99.90;;;;;;5035168;28;20038;-66
2022/01/04 08:28:56;;;;;;;10.38;3.83;;;9.20;99.90;;;;;;5042312;28;20045;-66
2022/01/04 08:31:24;;;;;;;7.20;3.63;;;9.20;99.90;;;;;;5009692;28;20065;-66
2022/01/04 08:33:53;;;;;;;6.25;3.45;;;9.10;99.90;;;;;;5022449;28;20337;-66
2022/01/04 08:36:22;;;;;;;7.00;3.47;;;9.10;99.90;;;;;;5046069;28;20041;-66
2022/01/04 08:38:49;;;;;;;8.43;3.78;;;9.20;99.90;;;;;;5033453;28;20042;-66
2022/01/04 08:41:16;;;;;;;10.55;3.45;;;9.20;99.90;;;;;;5030330;28;20037;-66
2022/01/04 08:43:44;;;;;;;6.97;3.05;;;9.20;99.90;;;;;;5035636;28;20041;-67
2022/01/04 08:46:12;;;;;;;8.35;3.40;;;9.20;99.90;;;;;;5027723;28;20084;-65
2022/01/04 08:48:40;;;;;;;6.10;3.33;;;9.10;99.90;;;;;;5031097;28;20503;-67
2022/01/04 08:51:07;;;;;;;7.32;2.78;;;9.10;99.90;;;;;;5031139;28;20048;-65
2022/01/04 08:53:34;;;;;;;6.70;3.00;;;9.20;99.90;;;;;;5039497;28;20037;-66
2022/01/04 08:56:04;;;;;;;7.15;3.03;;;9.10;99.90;;;;;;5042029;28;20041;-65
2022/01/04 08:58:31;;;;;;;7.25;2.55;;;9.20;99.90;;;;;;5043712;28;20258;-66
2022/01/04 09:01:01;;;;;;;6.57;2.70;;;9.20;99.90;;;;;;5033009;28;20045;-66
2022/01/04 09:03:30;;;;;;;4.53;2.42;;;9.20;99.90;;;;;;5031406;28;20041;-66
2022/01/04 09:05:58;;;;;;;6.82;3.45;;;9.20;99.90;;;;;;5016952;28;20042;-65
2022/01/04 09:08:25;;;;;;;6.05;2.67;;;9.30;99.90;;;;;;5035254;28;20045;-65
2022/01/04 09:10:54;;;;;;;5.05;2.38;;;9.40;99.90;;;;;;5035947;28;20053;-65
2022/01/04 09:13:22;;;;;;;5.97;2.72;;;9.50;99.90;;;;;;5035269;28;20096;-66
2022/01/04 09:18:43;;;;;;;5.22;2.42;;;9.50;99.90;;;;;;5026907;28;20057;-65
2022/01/04 09:18:45;;;;;;;5.70;2.42;;;9.50;99.90;;;;;;5032360;28;20068;-66
2022/01/04 09:21:25;;;;;;;3.83;2.22;;;9.50;99.90;;;;;;5034030;28;20052;-66
2022/01/04 09:23:54;;;;;;;6.70;3.13;;;9.50;99.90;;;;;;5034560;28;20496;-66
2022/01/04 09:26:23;;;;;;;4.85;2.65;;;9.50;99.90;;;;;;5031627;28;20516;-66
2022/01/04 09:28:50;;;;;;;6.95;2.60;;;9.60;99.90;;;;;;5030948;28;20080;-66
2022/01/04 09:31:21;;;;;;;6.47;2.35;;;9.60;99.90;;;;;;5032863;28;20463;-66
2022/01/04 09:33:50;;;;;;;6.53;2.90;;;9.60;99.90;;;;;;5029918;28;20052;-66
2022/01/04 09:36:33;;;;;;;4.75;2.35;;;9.70;99.90;;;;;;5032628;28;20080;-66
2022/01/04 09:39:02;;;;;;;5.90;3.00;;;9.80;99.90;;;;;;5027949;28;20056;-65
2022/01/04 09:41:30;;;;;;;7.43;2.67;;;9.80;99.90;;;;;;5031098;28;20045;-65
2022/01/04 09:43:57;;;;;;;6.78;2.75;;;9.80;99.90;;;;;;5031471;28;20131;-66
2022/01/04 09:46:26;;;;;;;6.88;2.80;;;9.90;99.90;;;;;;5035967;28;20083;-66
2022/01/04 09:48:54;;;;;;;7.57;3.15;;;9.90;99.90;;;;;;5035097;28;20076;-67
2022/01/04 09:51:22;;;;;;;6.75;2.70;;;9.90;99.90;;;;;;5034054;28;20170;-67
2022/01/04 09:53:50;;;;;;;7.70;3.58;;;10.00;99.90;;;;;;5033946;28;20101;-66
2022/01/04 09:56:17;;;;;;;7.30;3.67;;;10.10;99.90;;;;;;5025637;28;20042;-66
2022/01/04 09:58:45;;;;;;;7.20;3.40;;;10.20;99.90;;;;;;5023355;28;20095;-67
2022/01/04 10:01:28;;;;;;;8.68;4.75;;;10.20;99.90;;;;;;5022812;28;20051;-66
2022/01/04 10:04:15;;;;;;;6.15;2.83;;;10.20;99.90;;;;;;5040893;28;20045;-66
2022/01/04 10:07:07;;;;;;;5.68;2.60;;;10.20;99.90;;;;;;5042771;28;20042;-66
2022/01/04 10:09:45;;;;;;;7.13;3.17;;;10.10;99.90;;;;;;5038367;28;20519;-67
2022/01/04 10:12:23;;;;;;;7.22;2.95;;;10.20;99.90;;;;;;5029599;28;20067;-67
2022/01/04 10:14:52;;;;;;;9.75;4.65;;;10.20;99.90;;;;;;5027355;28;20080;-66
2022/01/04 10:17:28;;;;;;;4.65;2.67;;;10.10;99.90;;;;;;5034362;28;20056;-67
2022/01/04 10:19:58;;;;;;;6.47;2.70;;;10.10;99.90;;;;;;5029577;28;20042;-66
2022/01/04 10:22:28;;;;;;;6.00;3.20;;;10.10;99.90;;;;;;5034239;28;20037;-66
2022/01/04 10:25:02;;;;;;;6.65;2.97;;;10.10;99.90;;;;;;5027885;28;20045;-66
2022/01/04 10:27:46;;;;;;;5.63;2.65;;;10.20;99.90;;;;;;5029288;28;20045;-66
2022/01/04 10:30:17;;;;;;;5.45;3.08;;;10.20;99.90;;;;;;5028649;28;20471;-66
2022/01/04 10:32:48;;;;;;;7.03;2.60;;;10.30;99.90;;;;;;5036979;28;20551;-66
2022/01/04 10:35:21;;;;;;;6.15;3.20;;;10.30;99.90;;;;;;5038511;28;20044;-66
2022/01/04 10:37:49;;;;;;;6.80;3.00;;;10.40;99.90;;;;;;5032348;28;20139;-66
2022/01/04 10:40:17;;;;;;;6.00;2.70;;;10.40;99.90;;;;;;5033822;28;20476;-67
2022/01/04 10:42:44;;;;;;;6.05;2.85;;;10.40;99.90;;;;;;5045908;28;20186;-66
2022/01/04 10:45:32;;;;;;;6.68;2.35;;;10.50;99.90;;;;;;5026905;28;20115;-67
2022/01/04 10:48:13;;;;;;;7.47;3.00;;;10.50;99.90;;;;;;5042359;28;20510;-67
2022/01/04 10:50:42;;;;;;;5.18;2.38;;;10.60;99.90;;;;;;5034464;28;20045;-67
2022/01/04 10:53:20;;;;;;;5.88;2.60;;;10.60;99.90;;;;;;5024272;28;20403;-67
2022/01/04 10:55:50;;;;;;;5.07;2.75;;;10.60;99.90;;;;;;5033977;28;20407;-67
2022/01/04 10:58:24;;;;;;;5.13;2.83;;;10.60;99.90;;;;;;5033387;28;20045;-66
2022/01/04 11:00:58;;;;;;;5.93;3.03;;;10.60;99.90;;;;;;5034603;28;20557;-66
2022/01/04 11:03:32;;;;;;;6.30;3.22;;;10.60;99.90;;;;;;5039072;28;20132;-66
2022/01/04 11:06:19;;;;;;;5.78;3.08;;;10.70;99.90;;;;;;5042815;28;20561;-67
2022/01/04 11:08:47;;;;;;;6.22;2.97;;;10.70;99.90;;;;;;5031885;28;20051;-66
2022/01/04 11:11:14;;;;;;;7.75;4.10;;;10.80;99.90;;;;;;5028785;28;20531;-66
2022/01/04 11:13:42;;;;;;;4.93;2.33;;;10.80;99.90;;;;;;5029355;28;20496;-66
2022/01/04 11:16:11;;;;;;;6.95;2.45;;;10.80;99.90;;;;;;5029846;28;20407;-67
2022/01/04 11:18:40;;;;;;;4.32;2.20;;;10.80;99.90;;;;;;5032310;28;20077;-67
2022/01/04 11:21:12;;;;;;;5.30;2.47;;;10.80;99.90;;;;;;5030326;28;20044;-66
2022/01/04 11:23:40;;;;;;;4.97;2.70;;;10.80;99.90;;;;;;5022754;28;20419;-64
2022/01/04 11:26:12;;;;;;;5.95;2.50;;;10.80;99.90;;;;;;5023904;28;20042;-67
2022/01/04 11:28:47;;;;;;;4.28;2.15;;;10.90;99.90;;;;;;5035355;28;20046;-66
2022/01/04 11:31:51;;;;;;;5.40;2.65;;;11.00;99.90;;;;;;5024190;28;20069;-66
2022/01/04 11:34:30;;;;;;;5.97;2.30;;;11.00;99.90;;;;;;5024869;28;20138;-66
2022/01/04 11:36:58;;;;;;;9.60;5.50;;;10.90;99.90;;;;;;5027226;28;20041;-66
2022/01/04 11:39:25;;;;;;;7.35;3.13;;;10.90;99.90;;;;;;5038844;28;20428;-66
2022/01/04 11:41:55;;;;;;;6.25;2.67;;;10.90;99.90;;;;;;5023480;28;20128;-65
2022/01/04 11:44:28;;;;;;;4.78;2.50;;;10.90;99.90;;;;;;5024301;28;20661;-66
2022/01/04 11:47:06;;;;;;;5.97;2.30;;;11.00;99.90;;;;;;5026390;28;20045;-66
2022/01/04 11:49:36;;;;;;;5.30;2.03;;;11.00;99.90;;;;;;5039791;28;20067;-65
2022/01/04 11:52:06;;;;;;;5.40;2.28;;;11.00;99.90;;;;;;5040435;28;20041;-66
2022/01/04 11:54:34;;;;;;;4.80;2.20;;;11.00;99.90;;;;;;5042488;28;20456;-67
2022/01/04 11:57:09;;;;;;;6.10;1.98;;;11.00;99.90;;;;;;5016251;28;20516;-66
2022/01/04 11:59:46;;;;;;;4.03;2.03;;;11.10;99.90;;;;;;5028811;28;20159;-66
2022/01/04 12:02:31;;;;;;;4.05;2.08;;;11.20;99.90;;;;;;5017519;28;20507;-66
2022/01/04 12:05:01;;;;;;;3.33;1.63;;;11.20;99.90;;;;;;5016019;28;20132;-67
2022/01/04 12:07:50;;;;;;;4.22;1.90;;;11.20;99.90;;;;;;5027272;28;20372;-67
2022/01/04 12:10:20;;;;;;;4.43;1.90;;;11.30;99.90;;;;;;5016538;28;20111;-67
2022/01/04 12:12:59;;;;;;;5.53;1.80;;;11.30;99.90;;;;;;5025676;28;20049;-67
2022/01/04 12:15:32;;;;;;;6.55;1.63;;;11.30;99.90;;;;;;5028885;28;20403;-67
2022/01/04 12:18:05;;;;;;;3.42;1.80;;;11.40;99.90;;;;;;5026451;28;20096;-67
2022/01/04 12:20:44;;;;;;;3.45;1.48;;;11.40;99.90;;;;;;5029688;28;20043;-68
2022/01/04 12:23:35;;;;;;;3.88;1.60;;;11.50;99.90;;;;;;5028899;28;20419;-67
2022/01/04 12:26:02;;;;;;;3.70;1.92;;;11.50;99.90;;;;;;5030290;28;20514;-66
2022/01/04 12:28:36;;;;;;;3.40;1.35;;;11.60;99.90;;;;;;5030947;28;21252;-65
2022/01/04 12:31:19;;;;;;;3.05;1.50;;;11.60;99.90;;;;;;5029925;28;20053;-66
2022/01/04 12:33:58;;;;;;;3.15;1.30;;;11.50;99.90;;;;;;5028579;28;20132;-67
2022/01/04 12:36:38;;;;;;;3.13;1.20;;;11.60;99.90;;;;;;5015586;28;20113;-66
2022/01/04 12:39:14;;;;;;;3.22;1.50;;;11.60;99.90;;;;;;5018434;28;20033;-67
2022/01/04 12:41:44;;;;;;;4.15;2.10;;;11.60;99.90;;;;;;5024545;28;20075;-66
2022/01/04 12:44:20;;;;;;;4.72;1.92;;;11.60;99.90;;;;;;5026594;28;20412;-66
2022/01/04 12:46:48;;;;;;;2.55;1.38;;;11.70;99.90;;;;;;5026984;28;20054;-66
2022/01/04 12:49:19;;;;;;;7.18;3.22;;;11.60;99.90;;;;;;5026034;28;20045;-65
2022/01/04 12:51:48;;;;;;;3.25;1.50;;;11.60;99.90;;;;;;5030269;28;20447;-66
2022/01/04 12:54:45;;;;;;;4.50;1.52;;;11.60;99.90;;;;;;5018262;28;20175;-65
2022/01/04 12:57:18;;;;;;;3.67;1.92;;;11.60;99.90;;;;;;5037316;28;20163;-65
2022/01/04 12:59:55;;;;;;;4.45;1.88;;;11.70;99.90;;;;;;5024861;28;20048;-66
2022/01/04 13:02:30;;;;;;;2.80;1.10;;;11.70;99.90;;;;;;5038242;28;20072;-66
2022/01/04 13:05:06;;;;;;;4.22;1.67;;;11.70;99.90;;;;;;5019835;28;20532;-65
2022/01/04 13:07:36;;;;;;;3.50;1.75;;;11.70;99.90;;;;;;5034307;28;20784;-67
2022/01/04 13:10:10;;;;;;;3.35;1.50;;;11.70;99.90;;;;;;5026681;28;20038;-66
2022/01/04 13:12:44;;;;;;;3.17;1.60;;;11.70;99.90;;;;;;5035472;28;20041;-66
2022/01/04 13:15:24;;;;;;;3.28;1.70;;;11.70;99.90;;;;;;5034081;28;20048;-65
2022/01/04 13:17:55;;;;;;;3.83;1.70;;;11.70;99.90;;;;;;5037376;28;20037;-65